メインページ
METAR-TAF:

METAR-TAF

空港 :

太平洋ミサイル試射場

Kekaha, ハワイ州, アメリカ合衆国

緯度: 22-02-11N, 経度: 159-47-11W, 海抜: 4m

現時点の気象観測

当レポートは53分前の04:56(UTC)に作成
の風 11kt
気温 23°C
湿度 69%
気圧 1016 hPa
視程: 16.1km
晴天

METAR: PHBK 210456Z AUTO 01011KT 10SM CLR 23/17 A3001 RMK AO2 SLP163 T02330172

時間: 19:49 (05:49 UTC)


TAF: 見つかりません

4,000以上の空港の気象観測と天気予報(METAR報とTAF報)

利用可能な観測所は地図上に黄色い丸と赤い丸で示す。

丸の上にカーソルを重ねると観測所名を参照できる。

次にクリックすると気象観測と天気予報を参照できる。

マップの切り替え:黒色「×」印の緑ボタンをクリックして拡大、「-」印の緑ボタンをクリックして縮小、緑色の三角印をクリックして隣りの地図に切り替え


METAR-TAF: